Time;durP1;ratioP1;P1;durP2;ratioP2;P2;SDS_P1;SDS_P2;PMS_P1;PMS_P2;Temp;Humidity;BMP_temperature;BMP_pressure;BME280_temperature;BME280_humidity;BME280_pressure;Samples;Min_cycle;Max_cycle;Signal;HPM_P1;HPM_P2
2023/06/06 00:00:35;;;;;;;4.33;2.43;;;;;;;18.20;59.05;94960.66;5072258;28;20280;-45
2023/06/06 00:03:04;;;;;;;3.03;2.57;;;;;;;18.14;59.02;94951.00;5072083;28;20198;-45
2023/06/06 00:05:36;;;;;;;3.73;2.90;;;;;;;18.14;59.25;94954.41;5072294;28;20197;-44
2023/06/06 00:08:10;;;;;;;3.77;2.77;;;;;;;18.05;59.05;94945.91;5072371;28;20256;-46
2023/06/06 00:10:38;;;;;;;2.63;2.20;;;;;;;18.07;58.84;94958.66;5070342;28;20220;-46
2023/06/06 00:13:06;;;;;;;3.10;2.80;;;;;;;18.02;58.95;94940.28;5071074;28;20665;-47
2023/06/06 00:15:35;;;;;;;3.80;2.47;;;;;;;18.00;58.54;94944.81;5071695;28;20313;-44
2023/06/06 00:18:03;;;;;;;2.63;2.03;;;;;;;17.95;58.61;94947.94;5071853;28;20222;-44
2023/06/06 00:20:32;;;;;;;3.80;2.60;;;;;;;17.90;58.58;94958.03;5071588;28;20222;-41
2023/06/06 00:23:02;;;;;;;3.97;3.03;;;;;;;17.82;58.27;94939.97;5071023;28;20735;-44
2023/06/06 00:25:29;;;;;;;4.33;2.67;;;;;;;17.81;58.16;94940.97;5069980;28;20209;-45
2023/06/06 00:27:58;;;;;;;2.83;2.17;;;;;;;17.76;58.56;94953.63;5070499;28;20195;-44
2023/06/06 00:30:27;;;;;;;4.57;2.47;;;;;;;17.72;58.03;94947.97;5071483;28;20665;-45
2023/06/06 00:33:04;;;;;;;3.23;2.50;;;;;;;17.67;57.87;94939.94;5071295;28;20248;-45
2023/06/06 00:35:31;;;;;;;3.17;2.30;;;;;;;17.63;57.15;94946.44;5070488;28;20256;-44
2023/06/06 00:38:00;;;;;;;7.67;2.70;;;;;;;17.58;56.97;94930.63;5071495;28;20189;-46
2023/06/06 00:40:28;;;;;;;6.53;2.63;;;;;;;17.44;56.79;94921.88;5071219;28;20222;-46
2023/06/06 00:42:57;;;;;;;5.33;2.00;;;;;;;17.40;56.28;94920.63;5070664;28;20225;-45
2023/06/06 00:45:26;;;;;;;5.80;2.57;;;;;;;17.52;56.31;94952.00;5069561;28;20202;-45
2023/06/06 00:47:53;;;;;;;5.57;2.33;;;;;;;17.47;56.46;94960.28;5069860;28;20195;-46
2023/06/06 00:50:24;;;;;;;2.90;2.17;;;;;;;17.47;56.55;94957.69;5069587;28;20681;-47
2023/06/06 00:52:52;;;;;;;4.57;2.47;;;;;;;17.45;56.41;94956.28;5069594;28;20209;-45
2023/06/06 00:55:24;;;;;;;3.47;2.23;;;;;;;17.41;56.47;94957.59;5071512;28;20210;-45
2023/06/06 00:57:53;;;;;;;2.40;2.10;;;;;;;17.35;56.58;94956.50;5070658;28;20193;-45
2023/06/06 01:00:20;;;;;;;2.60;2.40;;;;;;;17.33;56.30;94966.22;5070978;28;20209;-45
2023/06/06 01:02:49;;;;;;;2.67;2.23;;;;;;;17.33;55.62;94968.81;5070442;28;20197;-45
2023/06/06 01:05:18;;;;;;;3.83;2.20;;;;;;;17.32;55.60;94961.22;5070865;28;20193;-46
2023/06/06 01:07:49;;;;;;;5.63;2.20;;;;;;;17.27;55.58;94970.31;5070601;28;20249;-45
2023/06/06 01:10:19;;;;;;;5.23;2.17;;;;;;;17.17;55.38;94955.97;5069081;28;20194;-46
2023/06/06 01:12:56;;;;;;;6.23;1.97;;;;;;;17.23;55.48;94974.22;5070494;28;20198;-46
2023/06/06 01:15:32;;;;;;;5.87;2.37;;;;;;;17.20;55.48;94966.78;5068963;28;20226;-45
2023/06/06 01:18:02;;;;;;;2.20;2.10;;;;;;;17.11;55.64;94957.47;5070805;28;20198;-45
2023/06/06 01:20:32;;;;;;;2.57;2.37;;;;;;;17.17;55.52;94976.66;5070854;28;20399;-45
2023/06/06 01:23:02;;;;;;;3.00;2.20;;;;;;;17.14;54.97;94967.47;5068954;28;20198;-45
2023/06/06 01:25:29;;;;;;;4.53;2.53;;;;;;;17.11;54.59;94977.34;5070877;28;20186;-45
2023/06/06 01:27:56;;;;;;;2.43;2.23;;;;;;;16.81;54.52;94930.69;5069785;28;20195;-46
2023/06/06 01:30:29;;;;;;;2.33;2.00;;;;;;;17.08;54.33;94975.91;5068977;28;20661;-46
2023/06/06 01:33:10;;;;;;;2.53;2.17;;;;;;;17.14;53.84;94975.25;5070192;28;20202;-47
2023/06/06 01:35:43;;;;;;;4.37;2.27;;;;;;;17.15;53.69;94974.25;5070384;28;20247;-45
2023/06/06 01:38:20;;;;;;;2.20;2.00;;;;;;;17.16;53.75;94975.06;5070048;28;20577;-44
2023/06/06 01:40:49;;;;;;;2.20;2.00;;;;;;;17.12;53.25;94977.16;5069000;28;20225;-46
2023/06/06 01:43:22;;;;;;;4.67;2.20;;;;;;;17.10;53.18;94976.56;5069488;28;20201;-45
2023/06/06 01:45:51;;;;;;;2.97;2.30;;;;;;;17.13;52.88;94976.19;5070448;28;20642;-44
2023/06/06 01:48:22;;;;;;;3.40;2.13;;;;;;;17.10;53.37;94975.72;5069879;28;20228;-44
2023/06/06 01:50:54;;;;;;;2.20;2.00;;;;;;;17.04;53.30;94977.22;5070236;28;20653;-45
2023/06/06 01:53:22;;;;;;;3.47;2.03;;;;;;;16.99;53.91;94976.94;5068309;28;20841;-45
2023/06/06 01:55:50;;;;;;;8.47;2.40;;;;;;;17.00;54.18;94981.13;5070232;28;20213;-44
2023/06/06 01:58:18;;;;;;;3.50;1.97;;;;;;;16.98;54.39;94978.72;5069259;28;20204;-44
2023/06/06 02:00:45;;;;;;;3.67;2.03;;;;;;;16.94;54.65;94969.69;5070052;28;20237;-44
2023/06/06 02:03:12;;;;;;;4.20;2.00;;;;;;;16.99;54.91;94982.91;5069630;28;20194;-48
2023/06/06 02:05:39;;;;;;;3.13;2.23;;;;;;;16.87;55.25;94957.63;5069829;28;20229;-46
2023/06/06 02:08:07;;;;;;;4.37;2.20;;;;;;;17.04;55.20;94978.03;5069969;28;20266;-45
2023/06/06 02:10:35;;;;;;;7.13;2.77;;;;;;;17.04;55.55;94978.03;5070176;28;20262;-44
2023/06/06 02:13:02;;;;;;;3.10;2.00;;;;;;;17.04;55.75;94982.38;5069206;28;20198;-44
2023/06/06 02:15:29;;;;;;;2.20;2.00;;;;;;;17.05;55.74;94977.06;5069543;28;20234;-46
2023/06/06 02:17:56;;;;;;;3.17;2.07;;;;;;;16.83;55.85;94946.81;5069411;28;20653;-45
2023/06/06 02:20:23;;;;;;;2.10;1.90;;;;;;;17.08;55.88;94982.84;5069608;28;20678;-46
2023/06/06 02:22:49;;;;;;;3.27;2.10;;;;;;;17.01;55.87;94990.47;5069355;28;20292;-45
2023/06/06 02:25:16;;;;;;;2.43;2.10;;;;;;;17.03;55.86;94996.28;5069859;28;20198;-44
2023/06/06 02:27:48;;;;;;;2.27;2.07;;;;;;;17.01;55.96;95004.22;5069696;28;20186;-44
2023/06/06 02:30:15;;;;;;;2.03;1.93;;;;;;;17.03;55.85;94999.66;5070055;28;20612;-43
2023/06/06 02:32:42;;;;;;;4.13;2.00;;;;;;;17.03;55.98;95011.78;5069932;28;20235;-44
2023/06/06 02:35:09;;;;;;;7.40;3.33;;;;;;;16.92;56.08;94987.13;5069527;28;20189;-44
2023/06/06 02:37:36;;;;;;;4.20;2.10;;;;;;;17.03;56.21;94998.88;5069658;28;20251;-45
2023/06/06 02:40:08;;;;;;;3.00;2.07;;;;;;;17.02;56.28;95005.81;5069616;28;20193;-45
2023/06/06 02:42:35;;;;;;;2.43;2.23;;;;;;;16.82;56.15;94980.56;5069292;28;20583;-45
2023/06/06 02:45:03;;;;;;;2.50;2.30;;;;;;;16.82;56.23;94985.72;5069075;28;20202;-44
2023/06/06 02:47:30;;;;;;;3.73;2.07;;;;;;;16.96;56.32;95011.66;5069227;28;20707;-46
2023/06/06 02:49:58;;;;;;;2.67;1.97;;;;;;;16.89;56.41;95015.09;5069136;28;20240;-44
2023/06/06 02:52:28;;;;;;;1.83;1.73;;;;;;;16.85;56.58;95013.81;5070206;28;20305;-45
2023/06/06 02:54:59;;;;;;;7.03;2.17;;;;;;;16.81;56.43;95013.34;5073663;28;20218;-47
2023/06/06 02:57:30;;;;;;;2.13;1.93;;;;;;;16.77;56.73;95010.28;5073178;28;20242;-45
2023/06/06 03:00:00;;;;;;;1.83;1.57;;;;;;;16.77;56.90;95012.88;5073142;28;20673;-45
2023/06/06 03:02:29;;;;;;;4.50;2.07;;;;;;;16.79;57.11;95021.25;5072805;28;20237;-47
2023/06/06 03:04:59;;;;;;;3.97;2.03;;;;;;;16.66;57.50;94999.47;5072979;28;20201;-45
2023/06/06 03:07:27;;;;;;;5.60;1.77;;;;;;;16.76;57.62;95024.19;5073258;28;20282;-45
2023/06/06 03:09:54;;;;;;;2.47;2.27;;;;;;;16.72;57.95;95016.91;5071846;28;20619;-45
2023/06/06 03:12:23;;;;;;;3.63;2.00;;;;;;;16.72;58.01;95020.31;5072704;28;20584;-44
2023/06/06 03:14:50;;;;;;;3.23;2.20;;;;;;;16.72;58.34;95022.91;5072390;28;20709;-45
2023/06/06 03:17:21;;;;;;;2.70;2.17;;;;;;;16.61;58.49;95010.31;5072866;28;20583;-45
2023/06/06 03:19:49;;;;;;;2.70;2.00;;;;;;;16.69;58.56;95023.19;5072507;28;20194;-49
2023/06/06 03:22:17;;;;;;;2.23;2.00;;;;;;;16.74;58.56;95025.31;5073248;28;20641;-45
2023/06/06 03:24:49;;;;;;;3.63;2.00;;;;;;;16.70;58.89;95021.41;5072049;28;20663;-44
2023/06/06 03:27:16;;;;;;;3.40;2.30;;;;;;;16.75;58.92;95022.56;5073110;28;20193;-45
2023/06/06 03:29:46;;;;;;;3.30;2.10;;;;;;;16.75;59.13;95026.91;5072561;28;20244;-45
2023/06/06 03:32:16;;;;;;;3.90;2.40;;;;;;;16.75;59.13;95014.00;5072608;28;20202;-45
2023/06/06 03:34:46;;;;;;;3.27;1.90;;;;;;;16.86;59.25;95033.50;5071297;28;20190;-46
2023/06/06 03:37:15;;;;;;;7.07;2.23;;;;;;;16.92;59.16;95030.25;5071208;28;20312;-44
2023/06/06 03:39:46;;;;;;;2.33;2.13;;;;;;;16.98;59.69;95027.81;5073002;28;20199;-44
2023/06/06 03:42:13;;;;;;;5.07;2.30;;;;;;;17.03;60.09;95022.13;5070904;28;20221;-44
2023/06/06 03:44:43;;;;;;;2.27;2.13;;;;;;;17.08;60.09;95026.78;5072094;28;20291;-46
2023/06/06 03:47:13;;;;;;;5.07;2.17;;;;;;;17.13;59.37;95024.50;5070549;28;20304;-43
2023/06/06 03:49:40;;;;;;;2.40;1.83;;;;;;;17.16;59.28;95029.34;5072716;28;20194;-43
2023/06/06 03:52:08;;;;;;;2.33;1.90;;;;;;;17.25;58.54;95021.34;5072020;28;20198;-44
2023/06/06 03:54:37;;;;;;;3.27;2.20;;;;;;;17.38;58.20;95033.72;5072179;28;20197;-42
2023/06/06 03:57:05;;;;;;;3.53;2.50;;;;;;;17.47;57.92;95031.88;5071949;28;20582;-44
2023/06/06 03:59:33;;;;;;;6.57;2.30;;;;;;;17.40;57.93;95005.94;5070959;28;20285;-43
2023/06/06 04:01:59;;;;;;;3.33;2.57;;;;;;;17.69;58.37;95035.44;5070496;28;20225;-47
2023/06/06 04:04:26;;;;;;;6.63;2.93;;;;;;;17.74;60.06;95015.88;5072136;28;20182;-43
2023/06/06 04:06:53;;;;;;;6.60;2.80;;;;;;;17.93;61.12;95030.13;5075702;28;20194;-45
2023/06/06 04:09:20;;;;;;;7.40;2.57;;;;;;;18.00;61.77;95018.13;5078464;28;20497;-46
2023/06/06 04:11:48;;;;;;;7.90;2.70;;;;;;;18.11;62.29;95021.25;5077619;28;20183;-45
2023/06/06 04:14:15;;;;;;;7.17;3.50;;;;;;;18.24;62.32;95018.84;5077816;28;20191;-46
2023/06/06 04:16:42;;;;;;;5.93;3.07;;;;;;;18.35;61.27;95026.19;5076527;28;20230;-45
2023/06/06 04:19:11;;;;;;;3.10;2.57;;;;;;;18.36;59.66;95008.88;5077160;28;20185;-46
2023/06/06 04:21:39;;;;;;;5.00;2.40;;;;;;;18.55;58.90;95008.31;5076286;28;20296;-45
2023/06/06 04:24:06;;;;;;;2.20;2.00;;;;;;;18.87;57.50;95038.28;5075705;28;20190;-46
2023/06/06 04:26:34;;;;;;;3.17;2.40;;;;;;;19.04;56.79;95028.50;5076323;28;20556;-45
2023/06/06 04:29:03;;;;;;;2.50;2.17;;;;;;;19.21;54.70;95035.13;5075159;28;20202;-46
2023/06/06 04:31:30;;;;;;;4.53;2.50;;;;;;;19.23;54.72;95029.72;5073720;28;20195;-44
2023/06/06 04:33:57;;;;;;;4.13;2.25;;;;;;;19.09;56.21;94987.31;5073277;28;20198;-47
2023/06/06 04:36:24;;;;;;;2.53;2.33;;;;;;;19.46;55.01;95027.78;5072707;28;20199;-43
2023/06/06 04:38:53;;;;;;;2.47;2.23;;;;;;;19.54;55.19;95024.25;5070480;28;20274;-45
2023/06/06 04:41:22;;;;;;;2.60;2.40;;;;;;;19.60;54.74;95020.91;5071413;28;20284;-44
2023/06/06 04:43:51;;;;;;;4.28;2.35;;;;;;;19.60;54.40;95020.13;5069912;28;20186;-45
2023/06/06 04:46:23;;;;;;;2.88;2.00;;;;;;;19.59;54.37;95014.13;5071675;28;20195;-47
2023/06/06 04:48:53;;;;;;;4.97;2.33;;;;;;;19.75;54.17;95024.31;5065232;28;20222;-43
2023/06/06 04:51:22;;;;;;;5.00;2.50;;;;;;;19.90;53.78;95023.41;5062296;28;20190;-46
2023/06/06 04:53:50;;;;;;;2.55;2.00;;;;;;;20.09;54.02;95024.59;5051168;28;20539;-46
2023/06/06 04:56:17;;;;;;;6.70;2.67;;;;;;;20.18;53.10;95026.84;5051510;28;20222;-45
2023/06/06 04:58:46;;;;;;;7.35;2.10;;;;;;;20.36;52.62;95026.38;5050933;28;20206;-44
2023/06/06 05:01:13;;;;;;;3.97;2.40;;;;;;;20.49;52.00;95023.88;5069815;28;20198;-46
2023/06/06 05:03:41;;;;;;;3.42;2.45;;;;;;;20.54;52.32;95025.91;5070675;28;20215;-46
2023/06/06 05:06:08;;;;;;;2.65;2.15;;;;;;;20.69;51.83;95024.00;5070819;28;20203;-46
2023/06/06 05:08:41;;;;;;;2.78;2.15;;;;;;;20.62;52.03;95004.16;5070604;28;20251;-44
2023/06/06 05:11:09;;;;;;;6.43;2.80;;;;;;;20.91;52.39;95029.91;5069543;28;20280;-45
2023/06/06 05:13:40;;;;;;;5.00;2.83;;;;;;;21.27;52.54;95029.66;5070950;28;20209;-45
2023/06/06 05:16:08;;;;;;;10.88;3.30;;;;;;;21.06;52.44;94954.34;5072090;28;20229;-46
2023/06/06 05:18:37;;;;;;;4.18;2.58;;;;;;;21.90;50.94;95037.22;5078478;28;20245;-45
2023/06/06 05:21:08;;;;;;;6.15;2.20;;;;;;;22.01;48.79;95036.59;5071601;28;20202;-45
2023/06/06 05:23:37;;;;;;;4.22;2.13;;;;;;;22.24;48.87;95038.88;5085014;28;20232;-45
2023/06/06 05:26:04;;;;;;;6.97;2.53;;;;;;;22.62;48.05;95032.97;5069126;28;20664;-44
2023/06/06 05:28:32;;;;;;;2.28;2.08;;;;;;;23.00;48.00;95034.91;5070810;28;20202;-44
2023/06/06 05:31:00;;;;;;;8.82;3.30;;;;;;;23.27;47.62;95026.00;5069424;28;20198;-46
2023/06/06 05:33:26;;;;;;;5.40;2.63;;;;;;;23.49;47.21;95030.91;5068513;28;20194;-46
2023/06/06 05:35:55;;;;;;;3.03;2.53;;;;;;;23.79;47.10;95036.34;5080398;28;20197;-45
2023/06/06 05:38:27;;;;;;;3.88;2.45;;;;;;;24.08;45.97;95040.16;5075515;28;20634;-45
2023/06/06 05:40:54;;;;;;;5.10;2.88;;;;;;;24.17;45.97;95040.69;5072687;28;20204;-43
2023/06/06 05:43:20;;;;;;;3.35;2.10;;;;;;;24.32;44.49;95035.97;5085250;28;20209;-42
2023/06/06 05:45:48;;;;;;;5.13;2.47;;;;;;;24.49;44.06;95033.63;5078509;28;20213;-45
2023/06/06 05:48:14;;;;;;;3.35;2.00;;;;;;;24.57;43.72;95035.16;5069103;28;20201;-45
2023/06/06 05:50:44;;;;;;;3.22;2.30;;;;;;;24.68;43.64;95034.44;5086086;28;20202;-47
2023/06/06 05:53:11;;;;;;;2.83;2.10;;;;;;;24.84;43.33;95027.84;5072625;28;20194;-45
2023/06/06 05:55:40;;;;;;;3.30;2.00;;;;;;;24.92;42.72;95023.13;5087446;28;20190;-44
2023/06/06 05:58:07;;;;;;;5.72;2.47;;;;;;;24.95;42.49;95011.41;5076954;28;20190;-46
2023/06/06 06:00:35;;;;;;;4.03;1.98;;;;;;;25.12;42.15;95028.13;5066821;28;20194;-44
2023/06/06 06:03:02;;;;;;;3.90;2.40;;;;;;;25.08;41.81;95029.59;5076312;28;20217;-45
2023/06/06 06:05:30;;;;;;;4.80;2.30;;;;;;;25.03;41.45;95021.56;5076404;28;20190;-44
2023/06/06 06:07:59;;;;;;;3.10;2.30;;;;;;;24.96;42.02;95028.72;5082526;28;20189;-44
2023/06/06 06:10:26;;;;;;;4.18;2.30;;;;;;;25.10;41.86;95029.41;5067367;28;20190;-45
2023/06/06 06:12:54;;;;;;;3.70;2.30;;;;;;;25.30;41.72;95023.91;5076281;28;20185;-46
2023/06/06 06:15:21;;;;;;;2.40;2.17;;;;;;;25.38;41.77;95027.00;5078324;28;20358;-44
2023/06/06 06:17:48;;;;;;;3.08;1.95;;;;;;;25.57;41.08;95022.53;5073428;28;20560;-45
2023/06/06 06:20:16;;;;;;;4.45;2.50;;;;;;;25.76;40.63;95031.13;5080382;28;20665;-43
2023/06/06 06:22:44;;;;;;;6.20;2.47;;;;;;;25.89;40.54;95027.56;5072049;28;20206;-45
2023/06/06 06:25:12;;;;;;;3.65;2.17;;;;;;;25.95;40.85;95024.00;5072848;28;20272;-44
2023/06/06 06:27:39;;;;;;;2.55;2.30;;;;;;;26.14;40.75;95035.22;5074129;28;20219;-45
2023/06/06 06:30:09;;;;;;;2.83;2.28;;;;;;;26.07;40.38;95006.50;5083305;28;20197;-46
2023/06/06 06:32:38;;;;;;;4.68;2.50;;;;;;;26.30;40.39;95031.16;5084454;28;20573;-46
2023/06/06 06:35:06;;;;;;;8.43;2.72;;;;;;;26.06;41.33;95031.13;5068176;28;20187;-45
2023/06/06 06:37:36;;;;;;;4.18;2.50;;;;;;;26.10;40.85;95019.16;5071424;28;20178;-46
2023/06/06 06:40:05;;;;;;;3.17;1.77;;;;;;;26.27;40.33;95025.31;5077447;28;20188;-45
2023/06/06 06:42:31;;;;;;;6.68;2.30;;;;;;;26.38;40.44;95008.00;5076717;28;20217;-45
2023/06/06 06:44:58;;;;;;;4.53;2.45;;;;;;;26.75;39.99;95019.06;5068697;28;20212;-45
2023/06/06 06:47:26;;;;;;;3.67;2.15;;;;;;;26.88;39.30;95004.09;5070738;28;20631;-46
2023/06/06 06:49:53;;;;;;;3.00;2.38;;;;;;;26.99;40.26;95016.41;5077227;28;20197;-46
2023/06/06 06:52:20;;;;;;;3.55;2.20;;;;;;;27.11;39.47;95019.81;5076020;28;20624;-45
2023/06/06 06:54:53;;;;;;;4.85;2.33;;;;;;;27.24;39.15;95016.91;5073239;28;20217;-44
2023/06/06 06:57:21;;;;;;;6.80;2.30;;;;;;;27.30;39.22;95017.03;5076417;28;20185;-44
2023/06/06 06:59:48;;;;;;;3.13;2.00;;;;;;;27.35;38.61;95023.16;5065732;28;20194;-45
2023/06/06 07:02:15;;;;;;;8.02;2.70;;;;;;;27.21;38.61;95020.03;5077588;28;20195;-45
2023/06/06 07:04:45;;;;;;;2.30;2.00;;;;;;;27.04;39.00;95015.72;5073986;28;20292;-44
2023/06/06 07:07:15;;;;;;;3.05;2.30;;;;;;;27.16;39.21;95014.69;5076657;28;20181;-45
2023/06/06 07:09:43;;;;;;;7.65;2.92;;;;;;;27.21;39.41;95016.59;5067966;28;20182;-45
2023/06/06 07:12:11;;;;;;;3.67;2.03;;;;;;;27.42;38.86;95015.97;5069002;28;20561;-44
2023/06/06 07:14:38;;;;;;;3.63;2.28;;;;;;;27.64;39.15;95020.53;5078410;28;20216;-51
2023/06/06 07:17:05;;;;;;;4.15;2.58;;;;;;;27.80;37.97;95009.28;5078889;28;20186;-45
2023/06/06 07:19:32;;;;;;;5.88;2.28;;;;;;;27.75;38.12;95014.44;5068581;28;20244;-45
2023/06/06 07:22:00;;;;;;;3.72;2.20;;;;;;;27.80;38.18;95008.47;5070484;28;20183;-44
2023/06/06 07:24:27;;;;;;;2.47;2.10;;;;;;;27.89;37.88;95007.88;5072676;28;20218;-44
2023/06/06 07:26:54;;;;;;;3.03;1.92;;;;;;;27.99;37.89;95012.50;5068839;28;20186;-44
2023/06/06 07:29:21;;;;;;;5.55;2.60;;;;;;;28.09;37.01;95022.38;5073061;28;20186;-42
2023/06/06 07:31:48;;;;;;;5.47;2.67;;;;;;;27.98;37.87;95016.97;5072960;28;20186;-44
2023/06/06 07:34:15;;;;;;;5.30;2.83;;;;;;;27.91;38.16;95012.88;5080256;28;20198;-44
2023/06/06 07:36:42;;;;;;;5.32;2.75;;;;;;;27.85;37.97;95011.19;5071897;28;20217;-44
2023/06/06 07:39:10;;;;;;;5.18;2.60;;;;;;;27.80;38.69;95011.09;5070243;28;20191;-44
2023/06/06 07:41:37;;;;;;;3.28;2.72;;;;;;;27.81;37.71;95015.31;5068873;28;20705;-44
2023/06/06 07:44:04;;;;;;;3.53;2.33;;;;;;;27.69;38.75;95008.28;5077468;28;20224;-44
2023/06/06 07:46:30;;;;;;;4.95;2.15;;;;;;;27.57;38.73;95012.00;5080735;28;20190;-44
2023/06/06 07:48:59;;;;;;;2.92;2.28;;;;;;;27.54;38.82;95007.22;5074779;28;20186;-43
2023/06/06 07:51:26;;;;;;;6.45;2.60;;;;;;;27.30;39.08;95009.16;5077944;28;20624;-44
2023/06/06 07:53:53;;;;;;;7.22;2.55;;;;;;;26.90;39.51;94996.78;5071540;28;20190;-44
2023/06/06 07:56:21;;;;;;;3.45;2.20;;;;;;;26.72;40.57;95006.41;5085352;28;20194;-44
2023/06/06 07:58:52;;;;;;;4.47;2.60;;;;;;;26.81;40.68;95003.41;5084478;28;20665;-44
2023/06/06 08:01:21;;;;;;;5.50;2.47;;;;;;;26.99;40.53;95009.31;5072966;28;20644;-45
2023/06/06 08:03:49;;;;;;;4.95;2.60;;;;;;;27.29;40.30;95015.41;5075692;28;20313;-44
2023/06/06 08:06:17;;;;;;;5.15;2.60;;;;;;;27.45;39.43;95017.31;5071427;28;20653;-43
2023/06/06 08:08:45;;;;;;;4.78;2.88;;;;;;;27.54;38.96;95012.47;5071349;28;20277;-43
2023/06/06 08:11:13;;;;;;;6.38;2.47;;;;;;;27.63;39.27;95014.47;5075170;28;20281;-44
2023/06/06 08:13:41;;;;;;;2.75;2.47;;;;;;;27.79;39.54;95012.16;5079542;28;20195;-43
2023/06/06 08:16:08;;;;;;;8.05;2.45;;;;;;;27.99;38.69;95015.13;5070916;28;20252;-44
2023/06/06 08:18:36;;;;;;;4.20;2.53;;;;;;;28.04;38.47;95009.16;5070608;28;20201;-44
2023/06/06 08:21:03;;;;;;;2.88;2.47;;;;;;;28.17;38.51;95011.44;5070594;28;20197;-44
2023/06/06 08:23:30;;;;;;;5.10;2.28;;;;;;;28.28;38.23;95015.81;5078326;28;20276;-45
2023/06/06 08:25:57;;;;;;;3.35;2.03;;;;;;;28.26;37.51;95012.63;5082287;28;20182;-45
2023/06/06 08:28:24;;;;;;;4.47;2.20;;;;;;;28.30;37.95;95005.06;5072250;28;20206;-44
2023/06/06 08:30:53;;;;;;;5.10;2.60;;;;;;;28.42;37.63;95001.34;5073494;28;20186;-45
2023/06/06 08:33:21;;;;;;;5.30;2.20;;;;;;;28.47;37.42;95005.88;5073360;28;20198;-45
2023/06/06 08:35:48;;;;;;;4.00;2.78;;;;;;;28.52;38.11;95002.53;5079374;28;20661;-43
2023/06/06 08:38:15;;;;;;;3.50;2.33;;;;;;;28.58;38.21;95001.53;5070777;28;20221;-46
2023/06/06 08:40:43;;;;;;;3.75;2.78;;;;;;;28.61;38.01;95003.69;5080245;28;20198;-43
2023/06/06 08:43:12;;;;;;;11.20;2.40;;;;;;;28.57;37.76;95000.75;5074555;28;20655;-46
2023/06/06 08:45:44;;;;;;;4.18;2.53;;;;;;;28.57;38.16;94994.69;5070485;28;20285;-45
2023/06/06 08:48:14;;;;;;;5.38;2.70;;;;;;;28.40;38.15;94997.34;5072867;28;20507;-45
2023/06/06 08:50:42;;;;;;;3.30;2.20;;;;;;;28.40;38.48;94994.72;5072666;28;20182;-45
2023/06/06 08:53:10;;;;;;;4.07;2.45;;;;;;;28.32;38.45;94997.72;5079368;28;20505;-45
2023/06/06 08:55:38;;;;;;;5.28;2.85;;;;;;;28.30;38.57;94984.81;5069705;28;20221;-44
2023/06/06 08:58:06;;;;;;;6.47;2.90;;;;;;;28.29;39.07;94985.06;5078803;28;20190;-46
2023/06/06 09:00:33;;;;;;;4.18;2.67;;;;;;;28.22;39.17;94988.66;5068270;28;20675;-44
2023/06/06 09:03:03;;;;;;;4.22;2.38;;;;;;;28.20;38.93;94976.78;5084177;28;20224;-46
2023/06/06 09:05:32;;;;;;;3.08;2.65;;;;;;;28.16;39.42;94976.47;5078710;28;20282;-44
2023/06/06 09:08:00;;;;;;;5.65;3.78;;;;;;;28.09;39.54;94982.91;5077974;28;20186;-45
2023/06/06 09:10:27;;;;;;;3.00;2.63;;;;;;;27.79;39.71;94972.72;5070709;28;20256;-44
2023/06/06 09:12:54;;;;;;;6.28;2.88;;;;;;;27.65;40.32;94964.31;5077331;28;20208;-44
2023/06/06 09:15:21;;;;;;;4.10;2.70;;;;;;;27.66;40.40;94961.44;5072464;28;20230;-43
2023/06/06 09:17:53;;;;;;;5.90;3.03;;;;;;;27.65;40.47;94959.84;5078094;28;20835;-45
2023/06/06 09:20:20;;;;;;;3.28;2.97;;;;;;;27.70;41.20;94962.56;5081582;28;20181;-44
2023/06/06 09:22:49;;;;;;;5.30;2.80;;;;;;;27.65;41.36;94965.13;5081027;28;20182;-41
2023/06/06 09:25:18;;;;;;;3.08;2.72;;;;;;;27.66;41.47;94966.69;5071277;28;20240;-43
2023/06/06 09:27:45;;;;;;;6.53;3.05;;;;;;;27.59;41.01;94963.44;5083634;28;20650;-43
2023/06/06 09:30:22;;;;;;;4.55;2.67;;;;;;;27.45;41.17;94960.31;5078024;28;20301;-45
2023/06/06 09:32:54;;;;;;;4.60;2.97;;;;;;;27.34;41.51;94961.16;5075913;28;20320;-45
2023/06/06 09:35:22;;;;;;;3.65;2.90;;;;;;;27.20;42.04;94958.03;5063330;28;20195;-44
2023/06/06 09:37:52;;;;;;;3.10;2.80;;;;;;;26.98;42.40;94954.41;5079116;28;20205;-43
2023/06/06 09:40:21;;;;;;;3.65;3.00;;;;;;;26.94;42.85;94954.09;5076933;28;20193;-45
2023/06/06 09:42:49;;;;;;;3.47;2.60;;;;;;;27.01;42.57;94959.22;5075007;28;20840;-43
2023/06/06 09:45:17;;;;;;;5.05;3.10;;;;;;;26.85;42.68;94950.22;5072618;28;20193;-45
2023/06/06 09:47:46;;;;;;;6.82;2.90;;;;;;;26.76;43.30;94944.53;5083590;28;20301;-44
2023/06/06 09:50:15;;;;;;;5.50;3.03;;;;;;;26.42;44.07;94911.28;5075371;28;20207;-44
2023/06/06 09:52:42;;;;;;;3.97;3.15;;;;;;;26.52;44.59;94945.66;5077690;28;20198;-46
2023/06/06 09:55:12;;;;;;;3.10;2.80;;;;;;;26.22;44.61;94912.47;5078373;28;20193;-44
2023/06/06 09:57:41;;;;;;;4.32;3.22;;;;;;;26.31;45.06;94939.13;5074879;28;20661;-42
2023/06/06 10:00:10;;;;;;;3.72;3.35;;;;;;;26.02;45.22;94904.94;5074913;28;20213;-46
2023/06/06 10:02:42;;;;;;;4.10;3.63;;;;;;;26.10;45.29;94926.59;5076150;28;20231;-47
2023/06/06 10:05:11;;;;;;;5.35;2.90;;;;;;;26.02;45.95;94927.75;5086509;28;20245;-43
2023/06/06 10:07:44;;;;;;;3.53;3.22;;;;;;;25.88;46.21;94908.03;5078935;28;20197;-45
2023/06/06 10:10:14;;;;;;;2.85;2.60;;;;;;;25.95;46.64;94920.00;5085013;28;20287;-44
2023/06/06 10:12:41;;;;;;;6.38;3.25;;;;;;;25.76;46.48;94881.78;5075951;28;20557;-44
2023/06/06 10:15:11;;;;;;;3.00;2.80;;;;;;;25.88;46.74;94898.34;5068380;28;20853;-44
2023/06/06 10:17:41;;;;;;;3.22;2.92;;;;;;;25.89;47.39;94909.63;5068689;28;20285;-45
2023/06/06 10:20:11;;;;;;;3.78;2.97;;;;;;;25.90;47.26;94903.34;5074635;28;20276;-45
2023/06/06 10:22:39;;;;;;;6.28;3.38;;;;;;;25.76;47.08;94882.59;5071313;28;20239;-43
2023/06/06 10:25:11;;;;;;;3.53;3.22;;;;;;;25.87;47.38;94912.47;5074205;28;20232;-45
2023/06/06 10:27:50;;;;;;;4.07;3.13;;;;;;;25.81;47.09;94908.13;5081395;28;20277;-44
2023/06/06 10:30:27;;;;;;;6.40;4.43;;;;;;;25.67;47.25;94904.09;5079471;28;20198;-44
2023/06/06 10:33:05;;;;;;;5.90;3.15;;;;;;;25.66;47.53;94897.28;5077118;28;20583;-44
2023/06/06 10:35:33;;;;;;;3.72;3.10;;;;;;;25.67;47.60;94894.44;5080796;28;20202;-43
2023/06/06 10:38:03;;;;;;;4.18;3.28;;;;;;;25.76;47.20;94897.50;5080851;28;20699;-43
2023/06/06 10:40:42;;;;;;;4.72;3.30;;;;;;;25.74;47.12;94868.13;5069107;28;20628;-46
2023/06/06 10:43:11;;;;;;;6.15;3.03;;;;;;;25.84;46.41;94859.72;5070669;28;20229;-43
2023/06/06 10:45:45;;;;;;;7.20;3.05;;;;;;;26.12;46.71;94895.69;5065918;28;20746;-41
2023/06/06 10:48:13;;;;;;;3.88;2.70;;;;;;;26.22;46.93;94883.63;5073908;28;20235;-43
2023/06/06 10:50:52;;;;;;;9.68;2.90;;;;;;;26.28;45.67;94877.44;5082733;28;20193;-43
2023/06/06 10:53:19;;;;;;;5.72;2.85;;;;;;;26.18;46.21;94879.06;5080483;28;20193;-46
2023/06/06 10:55:46;;;;;;;6.15;3.50;;;;;;;26.20;45.67;94882.25;5068844;28;20649;-45
2023/06/06 10:58:30;;;;;;;6.45;3.85;;;;;;;26.15;46.32;94871.66;5073612;28;20202;-43
2023/06/06 11:00:59;;;;;;;3.65;2.63;;;;;;;25.98;46.54;94869.72;5069231;28;20289;-44
2023/06/06 11:03:37;;;;;;;2.65;2.45;;;;;;;26.00;46.99;94872.94;5079932;28;20194;-43
2023/06/06 11:06:12;;;;;;;4.50;2.75;;;;;;;25.92;46.49;94865.41;5072561;28;20201;-44
2023/06/06 11:08:42;;;;;;;3.58;3.00;;;;;;;25.90;46.61;94848.31;5071806;28;20597;-42
2023/06/06 11:11:19;;;;;;;4.25;3.60;;;;;;;25.79;46.52;94822.94;5067653;28;20208;-41
2023/06/06 11:14:09;;;;;;;4.25;3.03;;;;;;;25.92;46.38;94857.56;5069323;28;20564;-46
2023/06/06 11:17:03;;;;;;;2.80;2.60;;;;;;;25.99;46.53;94852.19;5073843;28;20308;-46
2023/06/06 11:19:37;;;;;;;6.53;2.80;;;;;;;25.98;46.60;94825.19;5078809;28;20206;-44
2023/06/06 11:22:04;;;;;;;4.63;3.15;;;;;;;26.23;46.28;94839.84;5073965;28;20190;-45
2023/06/06 11:24:35;;;;;;;6.00;3.03;;;;;;;26.30;46.41;94832.66;5091499;28;20241;-42
2023/06/06 11:27:02;;;;;;;3.40;2.75;;;;;;;26.42;45.65;94822.09;5073590;28;20199;-45
2023/06/06 11:29:32;;;;;;;3.92;2.88;;;;;;;26.44;45.32;94827.97;5078032;28;20193;-46
2023/06/06 11:31:59;;;;;;;3.55;2.83;;;;;;;26.43;45.37;94829.75;5071537;28;20214;-43
2023/06/06 11:34:26;;;;;;;3.17;2.70;;;;;;;26.15;45.83;94833.13;5077670;28;20197;-46
2023/06/06 11:36:53;;;;;;;3.67;2.90;;;;;;;25.98;45.87;94834.88;5084436;28;20193;-46
2023/06/06 11:39:21;;;;;;;4.15;2.88;;;;;;;25.97;45.56;94830.66;5088751;28;20635;-45
2023/06/06 11:41:49;;;;;;;3.67;2.60;;;;;;;25.98;46.01;94824.38;5084352;28;20189;-46